sensor_id;sensor_type;location;lat;lon;timestamp;temperature;humidity
13585;DHT22;6863;48.402;9.994;2023-04-21T00:01:03;6.10;99.90
13585;DHT22;6863;48.402;9.994;2023-04-21T00:03:33;6.20;99.90
13585;DHT22;6863;48.402;9.994;2023-04-21T00:06:02;6.10;99.90
13585;DHT22;6863;48.402;9.994;2023-04-21T00:08:30;6.10;99.90
13585;DHT22;6863;48.402;9.994;2023-04-21T00:10:56;6.10;99.90
13585;DHT22;6863;48.402;9.994;2023-04-21T00:13:21;6.10;99.90
13585;DHT22;6863;48.402;9.994;2023-04-21T00:15:48;6.10;99.90
13585;DHT22;6863;48.402;9.994;2023-04-21T00:18:13;6.10;99.90
13585;DHT22;6863;48.402;9.994;2023-04-21T00:20:39;6.10;99.90
13585;DHT22;6863;48.402;9.994;2023-04-21T00:23:05;6.10;99.90
13585;DHT22;6863;48.402;9.994;2023-04-21T00:25:31;6.10;99.90
13585;DHT22;6863;48.402;9.994;2023-04-21T00:27:57;6.10;99.90
13585;DHT22;6863;48.402;9.994;2023-04-21T00:30:22;6.10;99.90
13585;DHT22;6863;48.402;9.994;2023-04-21T00:32:48;6.10;99.90
13585;DHT22;6863;48.402;9.994;2023-04-21T00:35:13;6.10;99.90
13585;DHT22;6863;48.402;9.994;2023-04-21T00:37:39;6.10;99.90
13585;DHT22;6863;48.402;9.994;2023-04-21T00:40:06;6.10;99.90
13585;DHT22;6863;48.402;9.994;2023-04-21T00:42:32;6.10;99.90
13585;DHT22;6863;48.402;9.994;2023-04-21T00:44:58;6.10;99.90
13585;DHT22;6863;48.402;9.994;2023-04-21T00:47:23;6.10;99.90
13585;DHT22;6863;48.402;9.994;2023-04-21T00:49:49;6.10;99.90
13585;DHT22;6863;48.402;9.994;2023-04-21T00:52:17;6.00;99.90
13585;DHT22;6863;48.402;9.994;2023-04-21T00:54:43;6.00;99.90
13585;DHT22;6863;48.402;9.994;2023-04-21T00:57:10;6.00;99.90
13585;DHT22;6863;48.402;9.994;2023-04-21T00:59:36;6.00;99.90
13585;DHT22;6863;48.402;9.994;2023-04-21T01:02:02;6.00;99.90
13585;DHT22;6863;48.402;9.994;2023-04-21T01:04:28;6.00;99.90
13585;DHT22;6863;48.402;9.994;2023-04-21T01:06:53;6.00;99.90
13585;DHT22;6863;48.402;9.994;2023-04-21T01:09:20;6.00;99.90
13585;DHT22;6863;48.402;9.994;2023-04-21T01:12:05;6.00;99.90
13585;DHT22;6863;48.402;9.994;2023-04-21T01:14:33;6.00;99.90
13585;DHT22;6863;48.402;9.994;2023-04-21T01:16:58;6.00;99.90
13585;DHT22;6863;48.402;9.994;2023-04-21T01:19:27;5.80;99.90
13585;DHT22;6863;48.402;9.994;2023-04-21T01:21:54;5.90;99.90
13585;DHT22;6863;48.402;9.994;2023-04-21T01:24:23;5.80;99.90
13585;DHT22;6863;48.402;9.994;2023-04-21T01:26:51;5.90;99.90
13585;DHT22;6863;48.402;9.994;2023-04-21T01:29:17;5.80;99.90
13585;DHT22;6863;48.402;9.994;2023-04-21T01:31:43;5.80;99.90
13585;DHT22;6863;48.402;9.994;2023-04-21T01:34:10;5.80;99.90
13585;DHT22;6863;48.402;9.994;2023-04-21T01:36:36;5.70;99.90
13585;DHT22;6863;48.402;9.994;2023-04-21T01:39:02;5.80;99.90
13585;DHT22;6863;48.402;9.994;2023-04-21T01:41:28;5.80;99.90
13585;DHT22;6863;48.402;9.994;2023-04-21T01:43:54;5.80;99.90
13585;DHT22;6863;48.402;9.994;2023-04-21T01:46:19;5.80;99.90
13585;DHT22;6863;48.402;9.994;2023-04-21T01:48:45;5.80;99.90
13585;DHT22;6863;48.402;9.994;2023-04-21T01:51:11;5.80;99.90
13585;DHT22;6863;48.402;9.994;2023-04-21T01:53:36;5.80;99.90
13585;DHT22;6863;48.402;9.994;2023-04-21T01:56:02;5.70;99.90
13585;DHT22;6863;48.402;9.994;2023-04-21T01:58:27;5.70;99.90
13585;DHT22;6863;48.402;9.994;2023-04-21T02:00:53;5.70;99.90
13585;DHT22;6863;48.402;9.994;2023-04-21T02:03:19;5.70;99.90
13585;DHT22;6863;48.402;9.994;2023-04-21T02:05:44;5.60;99.90
13585;DHT22;6863;48.402;9.994;2023-04-21T02:08:10;5.60;99.90
13585;DHT22;6863;48.402;9.994;2023-04-21T02:10:35;5.60;99.90
13585;DHT22;6863;48.402;9.994;2023-04-21T02:13:01;5.60;99.90
13585;DHT22;6863;48.402;9.994;2023-04-21T02:15:26;5.60;99.90
13585;DHT22;6863;48.402;9.994;2023-04-21T02:17:52;5.60;99.90
13585;DHT22;6863;48.402;9.994;2023-04-21T02:20:18;5.60;99.90
13585;DHT22;6863;48.402;9.994;2023-04-21T02:22:43;5.60;99.90
13585;DHT22;6863;48.402;9.994;2023-04-21T02:25:09;5.60;99.90
13585;DHT22;6863;48.402;9.994;2023-04-21T02:27:35;5.50;99.90
13585;DHT22;6863;48.402;9.994;2023-04-21T02:30:00;5.60;99.90
13585;DHT22;6863;48.402;9.994;2023-04-21T02:32:26;5.60;99.90
13585;DHT22;6863;48.402;9.994;2023-04-21T02:34:52;5.60;99.90
13585;DHT22;6863;48.402;9.994;2023-04-21T02:37:18;5.60;99.90
13585;DHT22;6863;48.402;9.994;2023-04-21T02:39:44;5.60;99.90
13585;DHT22;6863;48.402;9.994;2023-04-21T02:42:10;5.60;99.90
13585;DHT22;6863;48.402;9.994;2023-04-21T02:44:38;5.60;99.90
13585;DHT22;6863;48.402;9.994;2023-04-21T02:47:04;5.60;99.90
13585;DHT22;6863;48.402;9.994;2023-04-21T02:49:30;5.60;99.90
13585;DHT22;6863;48.402;9.994;2023-04-21T02:51:57;5.60;99.90
13585;DHT22;6863;48.402;9.994;2023-04-21T02:54:22;5.60;99.90
13585;DHT22;6863;48.402;9.994;2023-04-21T02:56:48;5.60;99.90
13585;DHT22;6863;48.402;9.994;2023-04-21T02:59:13;5.50;99.90
13585;DHT22;6863;48.402;9.994;2023-04-21T03:01:42;5.60;99.90
13585;DHT22;6863;48.402;9.994;2023-04-21T03:04:07;5.60;99.90
13585;DHT22;6863;48.402;9.994;2023-04-21T03:06:33;5.50;99.90
13585;DHT22;6863;48.402;9.994;2023-04-21T03:08:59;5.50;99.90
13585;DHT22;6863;48.402;9.994;2023-04-21T03:11:25;5.40;99.90
13585;DHT22;6863;48.402;9.994;2023-04-21T03:13:50;5.50;99.90
13585;DHT22;6863;48.402;9.994;2023-04-21T03:16:16;5.50;99.90
13585;DHT22;6863;48.402;9.994;2023-04-21T03:18:42;5.40;99.90
13585;DHT22;6863;48.402;9.994;2023-04-21T03:21:07;5.40;99.90
13585;DHT22;6863;48.402;9.994;2023-04-21T03:23:33;5.40;99.90
13585;DHT22;6863;48.402;9.994;2023-04-21T03:25:58;5.30;99.90
13585;DHT22;6863;48.402;9.994;2023-04-21T03:28:24;5.30;99.90
13585;DHT22;6863;48.402;9.994;2023-04-21T03:30:50;5.30;99.90
13585;DHT22;6863;48.402;9.994;2023-04-21T03:33:15;5.40;99.90
13585;DHT22;6863;48.402;9.994;2023-04-21T03:35:41;5.40;99.90
13585;DHT22;6863;48.402;9.994;2023-04-21T03:38:06;5.40;99.90
13585;DHT22;6863;48.402;9.994;2023-04-21T03:40:32;5.40;99.90
13585;DHT22;6863;48.402;9.994;2023-04-21T03:42:58;5.40;99.90
13585;DHT22;6863;48.402;9.994;2023-04-21T03:45:23;5.40;99.90
13585;DHT22;6863;48.402;9.994;2023-04-21T03:50:23;5.30;99.90
13585;DHT22;6863;48.402;9.994;2023-04-21T03:52:49;5.30;99.90
13585;DHT22;6863;48.402;9.994;2023-04-21T03:55:14;5.30;99.90
13585;DHT22;6863;48.402;9.994;2023-04-21T03:57:40;5.30;99.90
13585;DHT22;6863;48.402;9.994;2023-04-21T04:00:09;5.20;99.90
13585;DHT22;6863;48.402;9.994;2023-04-21T04:02:35;5.20;99.90
13585;DHT22;6863;48.402;9.994;2023-04-21T04:05:02;5.20;99.90
13585;DHT22;6863;48.402;9.994;2023-04-21T04:07:30;5.20;99.90
13585;DHT22;6863;48.402;9.994;2023-04-21T04:09:56;5.20;99.90
13585;DHT22;6863;48.402;9.994;2023-04-21T04:12:21;5.20;99.90
13585;DHT22;6863;48.402;9.994;2023-04-21T04:14:47;5.20;99.90
13585;DHT22;6863;48.402;9.994;2023-04-21T04:17:12;5.20;99.90
13585;DHT22;6863;48.402;9.994;2023-04-21T04:19:38;5.20;99.90
13585;DHT22;6863;48.402;9.994;2023-04-21T04:22:03;5.20;99.90
13585;DHT22;6863;48.402;9.994;2023-04-21T04:24:31;5.20;99.90
13585;DHT22;6863;48.402;9.994;2023-04-21T04:26:58;5.20;99.90
13585;DHT22;6863;48.402;9.994;2023-04-21T04:29:24;5.20;99.90
13585;DHT22;6863;48.402;9.994;2023-04-21T04:31:51;5.20;99.90
13585;DHT22;6863;48.402;9.994;2023-04-21T04:34:17;5.20;99.90
13585;DHT22;6863;48.402;9.994;2023-04-21T04:36:43;5.20;99.90
13585;DHT22;6863;48.402;9.994;2023-04-21T04:39:09;5.20;99.90
13585;DHT22;6863;48.402;9.994;2023-04-21T04:41:35;5.30;99.90
13585;DHT22;6863;48.402;9.994;2023-04-21T04:44:01;5.30;99.90
13585;DHT22;6863;48.402;9.994;2023-04-21T04:46:28;5.30;99.90
13585;DHT22;6863;48.402;9.994;2023-04-21T04:48:54;5.30;99.90
13585;DHT22;6863;48.402;9.994;2023-04-21T04:51:20;5.40;99.90
13585;DHT22;6863;48.402;9.994;2023-04-21T04:53:45;5.40;99.90
13585;DHT22;6863;48.402;9.994;2023-04-21T04:56:11;5.40;99.90
13585;DHT22;6863;48.402;9.994;2023-04-21T04:58:36;5.50;99.90
13585;DHT22;6863;48.402;9.994;2023-04-21T05:01:12;5.50;99.90
13585;DHT22;6863;48.402;9.994;2023-04-21T05:03:38;5.60;99.90
13585;DHT22;6863;48.402;9.994;2023-04-21T05:06:04;5.60;99.90
13585;DHT22;6863;48.402;9.994;2023-04-21T05:08:30;5.50;99.90
13585;DHT22;6863;48.402;9.994;2023-04-21T05:10:56;5.60;99.90
13585;DHT22;6863;48.402;9.994;2023-04-21T05:13:21;5.60;99.90
13585;DHT22;6863;48.402;9.994;2023-04-21T05:15:47;5.60;99.90
13585;DHT22;6863;48.402;9.994;2023-04-21T05:18:13;5.70;99.90
13585;DHT22;6863;48.402;9.994;2023-04-21T05:20:41;5.70;99.90
13585;DHT22;6863;48.402;9.994;2023-04-21T05:23:07;5.80;99.90
13585;DHT22;6863;48.402;9.994;2023-04-21T05:25:33;5.80;99.90
13585;DHT22;6863;48.402;9.994;2023-04-21T05:27:58;5.90;99.90
13585;DHT22;6863;48.402;9.994;2023-04-21T05:30:24;5.90;99.90
13585;DHT22;6863;48.402;9.994;2023-04-21T05:32:49;5.90;99.90
13585;DHT22;6863;48.402;9.994;2023-04-21T05:35:16;6.00;99.90
13585;DHT22;6863;48.402;9.994;2023-04-21T05:37:41;6.00;99.90
13585;DHT22;6863;48.402;9.994;2023-04-21T05:40:07;6.10;99.90
13585;DHT22;6863;48.402;9.994;2023-04-21T05:42:33;6.10;99.90
13585;DHT22;6863;48.402;9.994;2023-04-21T05:44:58;6.20;99.90
13585;DHT22;6863;48.402;9.994;2023-04-21T05:47:24;6.20;99.90
13585;DHT22;6863;48.402;9.994;2023-04-21T05:49:52;6.30;99.90
13585;DHT22;6863;48.402;9.994;2023-04-21T05:52:19;6.40;99.90
13585;DHT22;6863;48.402;9.994;2023-04-21T05:54:46;6.30;99.90
13585;DHT22;6863;48.402;9.994;2023-04-21T05:57:11;6.40;99.90
13585;DHT22;6863;48.402;9.994;2023-04-21T05:59:37;6.50;99.90
13585;DHT22;6863;48.402;9.994;2023-04-21T06:02:03;6.50;99.90
13585;DHT22;6863;48.402;9.994;2023-04-21T06:04:28;6.60;99.90
13585;DHT22;6863;48.402;9.994;2023-04-21T06:06:54;6.80;99.90
13585;DHT22;6863;48.402;9.994;2023-04-21T06:09:20;6.90;99.90
13585;DHT22;6863;48.402;9.994;2023-04-21T06:11:45;6.90;99.90
13585;DHT22;6863;48.402;9.994;2023-04-21T06:14:11;7.00;99.90
13585;DHT22;6863;48.402;9.994;2023-04-21T06:16:36;7.20;99.90
13585;DHT22;6863;48.402;9.994;2023-04-21T06:19:02;7.40;99.90
13585;DHT22;6863;48.402;9.994;2023-04-21T06:21:30;7.50;99.90
13585;DHT22;6863;48.402;9.994;2023-04-21T06:23:57;7.50;99.90
13585;DHT22;6863;48.402;9.994;2023-04-21T06:26:22;7.50;99.90
13585;DHT22;6863;48.402;9.994;2023-04-21T06:28:48;7.40;99.90
13585;DHT22;6863;48.402;9.994;2023-04-21T06:31:13;7.40;99.90
13585;DHT22;6863;48.402;9.994;2023-04-21T06:33:40;7.40;99.90
13585;DHT22;6863;48.402;9.994;2023-04-21T06:36:06;7.30;99.90
13585;DHT22;6863;48.402;9.994;2023-04-21T06:38:32;7.20;99.90
13585;DHT22;6863;48.402;9.994;2023-04-21T06:40:57;7.20;99.90
13585;DHT22;6863;48.402;9.994;2023-04-21T06:43:23;7.30;99.90
13585;DHT22;6863;48.402;9.994;2023-04-21T06:45:48;7.30;99.90
13585;DHT22;6863;48.402;9.994;2023-04-21T06:48:14;7.50;99.90
13585;DHT22;6863;48.402;9.994;2023-04-21T06:50:43;7.50;99.90
13585;DHT22;6863;48.402;9.994;2023-04-21T06:53:10;7.60;99.90
13585;DHT22;6863;48.402;9.994;2023-04-21T06:55:36;7.70;99.90
13585;DHT22;6863;48.402;9.994;2023-04-21T06:58:02;7.70;99.90
13585;DHT22;6863;48.402;9.994;2023-04-21T07:00:27;7.80;99.90
13585;DHT22;6863;48.402;9.994;2023-04-21T07:02:53;7.90;99.90
13585;DHT22;6863;48.402;9.994;2023-04-21T07:05:18;8.20;99.90
13585;DHT22;6863;48.402;9.994;2023-04-21T07:07:44;8.20;99.90
13585;DHT22;6863;48.402;9.994;2023-04-21T07:10:10;8.20;99.90
13585;DHT22;6863;48.402;9.994;2023-04-21T07:12:35;8.30;99.90
13585;DHT22;6863;48.402;9.994;2023-04-21T07:15:03;8.40;99.90
13585;DHT22;6863;48.402;9.994;2023-04-21T07:17:29;8.40;99.90
13585;DHT22;6863;48.402;9.994;2023-04-21T07:19:54;8.40;99.90
13585;DHT22;6863;48.402;9.994;2023-04-21T07:22:21;8.40;99.90
13585;DHT22;6863;48.402;9.994;2023-04-21T07:24:47;8.30;99.90
13585;DHT22;6863;48.402;9.994;2023-04-21T07:27:12;8.20;99.90
13585;DHT22;6863;48.402;9.994;2023-04-21T07:29:38;8.30;99.90
13585;DHT22;6863;48.402;9.994;2023-04-21T07:32:04;8.20;99.90
13585;DHT22;6863;48.402;9.994;2023-04-21T07:34:29;8.30;99.90
13585;DHT22;6863;48.402;9.994;2023-04-21T07:36:55;8.40;99.90
13585;DHT22;6863;48.402;9.994;2023-04-21T07:39:20;8.40;99.90
13585;DHT22;6863;48.402;9.994;2023-04-21T07:41:46;8.40;99.90
13585;DHT22;6863;48.402;9.994;2023-04-21T07:44:12;8.40;99.90
13585;DHT22;6863;48.402;9.994;2023-04-21T07:46:37;8.40;99.90
13585;DHT22;6863;48.402;9.994;2023-04-21T07:49:06;8.50;99.90
13585;DHT22;6863;48.402;9.994;2023-04-21T07:51:31;8.70;99.90
13585;DHT22;6863;48.402;9.994;2023-04-21T07:53:58;8.70;99.90
13585;DHT22;6863;48.402;9.994;2023-04-21T07:56:23;8.80;99.90
13585;DHT22;6863;48.402;9.994;2023-04-21T07:58:49;8.80;99.90
13585;DHT22;6863;48.402;9.994;2023-04-21T08:01:15;8.80;99.90
13585;DHT22;6863;48.402;9.994;2023-04-21T08:03:40;8.90;99.90
13585;DHT22;6863;48.402;9.994;2023-04-21T08:06:06;9.10;99.90
13585;DHT22;6863;48.402;9.994;2023-04-21T08:08:32;9.40;99.90
13585;DHT22;6863;48.402;9.994;2023-04-21T08:10:57;9.90;99.90
13585;DHT22;6863;48.402;9.994;2023-04-21T08:13:23;10.30;99.90
13585;DHT22;6863;48.402;9.994;2023-04-21T08:15:53;10.60;99.90
13585;DHT22;6863;48.402;9.994;2023-04-21T08:18:19;10.80;99.90
13585;DHT22;6863;48.402;9.994;2023-04-21T08:20:45;10.90;99.90
13585;DHT22;6863;48.402;9.994;2023-04-21T08:23:16;10.60;99.90
13585;DHT22;6863;48.402;9.994;2023-04-21T08:25:42;10.40;99.90
13585;DHT22;6863;48.402;9.994;2023-04-21T08:28:08;10.10;99.90
13585;DHT22;6863;48.402;9.994;2023-04-21T08:30:33;9.90;99.90
13585;DHT22;6863;48.402;9.994;2023-04-21T08:32:59;10.00;99.90
13585;DHT22;6863;48.402;9.994;2023-04-21T08:35:25;10.00;99.90
13585;DHT22;6863;48.402;9.994;2023-04-21T08:37:59;10.30;99.90
13585;DHT22;6863;48.402;9.994;2023-04-21T08:40:31;10.30;99.90
13585;DHT22;6863;48.402;9.994;2023-04-21T08:42:57;10.30;99.90
13585;DHT22;6863;48.402;9.994;2023-04-21T08:45:23;10.30;99.90
13585;DHT22;6863;48.402;9.994;2023-04-21T08:50:14;10.30;99.90
13585;DHT22;6863;48.402;9.994;2023-04-21T08:52:39;10.60;99.90
13585;DHT22;6863;48.402;9.994;2023-04-21T08:55:08;10.90;99.90
13585;DHT22;6863;48.402;9.994;2023-04-21T08:57:34;11.20;99.90
13585;DHT22;6863;48.402;9.994;2023-04-21T09:00:00;11.60;99.90
13585;DHT22;6863;48.402;9.994;2023-04-21T09:02:25;11.60;99.90
13585;DHT22;6863;48.402;9.994;2023-04-21T09:04:51;12.00;99.90
13585;DHT22;6863;48.402;9.994;2023-04-21T09:07:33;12.40;99.90
13585;DHT22;6863;48.402;9.994;2023-04-21T09:09:59;13.00;99.40
13585;DHT22;6863;48.402;9.994;2023-04-21T09:12:25;13.20;98.60
13585;DHT22;6863;48.402;9.994;2023-04-21T09:14:52;13.10;97.90
13585;DHT22;6863;48.402;9.994;2023-04-21T09:17:21;13.10;97.60
13585;DHT22;6863;48.402;9.994;2023-04-21T09:19:51;13.00;98.40
13585;DHT22;6863;48.402;9.994;2023-04-21T09:22:17;13.30;98.20
13585;DHT22;6863;48.402;9.994;2023-04-21T09:24:56;13.60;97.70
13585;DHT22;6863;48.402;9.994;2023-04-21T09:27:22;13.80;96.80
13585;DHT22;6863;48.402;9.994;2023-04-21T09:29:48;14.10;96.90
13585;DHT22;6863;48.402;9.994;2023-04-21T09:32:17;14.50;96.40
13585;DHT22;6863;48.402;9.994;2023-04-21T09:34:44;15.20;95.00
13585;DHT22;6863;48.402;9.994;2023-04-21T09:37:11;15.30;94.30
13585;DHT22;6863;48.402;9.994;2023-04-21T09:39:37;15.30;94.10
13585;DHT22;6863;48.402;9.994;2023-04-21T09:42:03;15.70;93.70
13585;DHT22;6863;48.402;9.994;2023-04-21T09:44:29;16.00;93.10
13585;DHT22;6863;48.402;9.994;2023-04-21T09:47:01;16.00;92.70
13585;DHT22;6863;48.402;9.994;2023-04-21T09:49:34;15.60;93.00
13585;DHT22;6863;48.402;9.994;2023-04-21T09:52:01;15.30;93.30
13585;DHT22;6863;48.402;9.994;2023-04-21T09:54:31;14.90;93.90
13585;DHT22;6863;48.402;9.994;2023-04-21T09:56:59;15.40;93.50
13585;DHT22;6863;48.402;9.994;2023-04-21T09:59:36;16.10;93.30
13585;DHT22;6863;48.402;9.994;2023-04-21T10:02:06;17.10;91.60
13585;DHT22;6863;48.402;9.994;2023-04-21T10:04:33;17.50;90.50
13585;DHT22;6863;48.402;9.994;2023-04-21T10:07:00;17.30;89.70
13585;DHT22;6863;48.402;9.994;2023-04-21T10:09:38;17.30;88.80
13585;DHT22;6863;48.402;9.994;2023-04-21T10:12:06;17.50;89.10
13585;DHT22;6863;48.402;9.994;2023-04-21T10:14:31;18.00;87.50
13585;DHT22;6863;48.402;9.994;2023-04-21T10:17:08;17.80;87.70
13585;DHT22;6863;48.402;9.994;2023-04-21T10:19:36;18.40;86.00
13585;DHT22;6863;48.402;9.994;2023-04-21T10:22:08;19.60;81.90
13585;DHT22;6863;48.402;9.994;2023-04-21T10:24:41;20.10;78.90
13585;DHT22;6863;48.402;9.994;2023-04-21T10:27:12;20.50;77.10
13585;DHT22;6863;48.402;9.994;2023-04-21T10:29:54;21.20;73.30
13585;DHT22;6863;48.402;9.994;2023-04-21T10:32:41;21.90;71.80
13585;DHT22;6863;48.402;9.994;2023-04-21T10:35:15;23.70;65.40
13585;DHT22;6863;48.402;9.994;2023-04-21T10:37:42;23.90;61.30
13585;DHT22;6863;48.402;9.994;2023-04-21T10:42:55;24.80;58.00
13585;DHT22;6863;48.402;9.994;2023-04-21T10:45:24;26.30;53.20
13585;DHT22;6863;48.402;9.994;2023-04-21T10:50:28;25.40;53.10
13585;DHT22;6863;48.402;9.994;2023-04-21T10:53:11;25.70;52.90
13585;DHT22;6863;48.402;9.994;2023-04-21T10:55:38;27.80;49.70
13585;DHT22;6863;48.402;9.994;2023-04-21T10:58:06;29.70;45.30
13585;DHT22;6863;48.402;9.994;2023-04-21T11:00:34;30.90;43.40
13585;DHT22;6863;48.402;9.994;2023-04-21T11:03:04;32.60;38.90
13585;DHT22;6863;48.402;9.994;2023-04-21T11:05:40;32.50;38.00
13585;DHT22;6863;48.402;9.994;2023-04-21T11:08:13;34.10;34.80
13585;DHT22;6863;48.402;9.994;2023-04-21T11:13:13;35.90;30.80
13585;DHT22;6863;48.402;9.994;2023-04-21T11:15:41;35.20;30.70
13585;DHT22;6863;48.402;9.994;2023-04-21T11:18:07;33.80;33.20
13585;DHT22;6863;48.402;9.994;2023-04-21T11:20:38;34.20;32.30
13585;DHT22;6863;48.402;9.994;2023-04-21T11:23:04;35.80;30.10
13585;DHT22;6863;48.402;9.994;2023-04-21T11:25:30;34.00;32.60
13585;DHT22;6863;48.402;9.994;2023-04-21T11:27:59;32.00;33.40
13585;DHT22;6863;48.402;9.994;2023-04-21T11:30:32;32.00;34.90
13585;DHT22;6863;48.402;9.994;2023-04-21T11:33:00;33.90;33.60
13585;DHT22;6863;48.402;9.994;2023-04-21T11:35:26;35.20;31.10
13585;DHT22;6863;48.402;9.994;2023-04-21T11:37:51;34.50;31.30
13585;DHT22;6863;48.402;9.994;2023-04-21T11:40:17;34.30;31.00
13585;DHT22;6863;48.402;9.994;2023-04-21T11:42:43;33.30;33.30
13585;DHT22;6863;48.402;9.994;2023-04-21T11:45:18;34.90;31.30
13585;DHT22;6863;48.402;9.994;2023-04-21T11:50:32;31.90;35.20
13585;DHT22;6863;48.402;9.994;2023-04-21T11:52:58;33.40;32.40
13585;DHT22;6863;48.402;9.994;2023-04-21T11:55:27;33.50;32.20
13585;DHT22;6863;48.402;9.994;2023-04-21T11:57:55;32.40;33.60
13585;DHT22;6863;48.402;9.994;2023-04-21T12:00:28;33.40;32.80
13585;DHT22;6863;48.402;9.994;2023-04-21T12:02:54;34.80;31.30
13585;DHT22;6863;48.402;9.994;2023-04-21T12:05:21;34.70;30.70
13585;DHT22;6863;48.402;9.994;2023-04-21T12:07:47;35.70;30.00
13585;DHT22;6863;48.402;9.994;2023-04-21T12:10:19;37.30;28.60
13585;DHT22;6863;48.402;9.994;2023-04-21T12:12:45;38.80;27.30
13585;DHT22;6863;48.402;9.994;2023-04-21T12:15:18;39.10;26.60
13585;DHT22;6863;48.402;9.994;2023-04-21T12:17:46;39.00;26.20
13585;DHT22;6863;48.402;9.994;2023-04-21T12:20:15;38.10;27.30
13585;DHT22;6863;48.402;9.994;2023-04-21T12:22:40;38.10;27.30
13585;DHT22;6863;48.402;9.994;2023-04-21T12:25:06;37.30;28.20
13585;DHT22;6863;48.402;9.994;2023-04-21T12:27:33;37.60;27.70
13585;DHT22;6863;48.402;9.994;2023-04-21T12:29:59;37.60;27.00
13585;DHT22;6863;48.402;9.994;2023-04-21T12:32:24;36.10;28.30
13585;DHT22;6863;48.402;9.994;2023-04-21T12:34:50;32.70;32.20
13585;DHT22;6863;48.402;9.994;2023-04-21T12:37:17;31.70;34.40
13585;DHT22;6863;48.402;9.994;2023-04-21T12:39:42;32.60;33.80
13585;DHT22;6863;48.402;9.994;2023-04-21T12:42:08;32.70;33.60
13585;DHT22;6863;48.402;9.994;2023-04-21T12:44:34;34.30;31.80
13585;DHT22;6863;48.402;9.994;2023-04-21T12:46:59;35.90;30.00
13585;DHT22;6863;48.402;9.994;2023-04-21T12:49:25;37.20;29.00
13585;DHT22;6863;48.402;9.994;2023-04-21T12:51:51;38.90;27.40
13585;DHT22;6863;48.402;9.994;2023-04-21T12:54:16;38.20;28.20
13585;DHT22;6863;48.402;9.994;2023-04-21T12:56:42;38.20;27.90
13585;DHT22;6863;48.402;9.994;2023-04-21T12:59:09;39.20;26.80
13585;DHT22;6863;48.402;9.994;2023-04-21T13:01:36;39.50;26.80
13585;DHT22;6863;48.402;9.994;2023-04-21T13:04:03;39.60;27.00
13585;DHT22;6863;48.402;9.994;2023-04-21T13:06:29;39.60;26.20
13585;DHT22;6863;48.402;9.994;2023-04-21T13:08:55;38.00;27.70
13585;DHT22;6863;48.402;9.994;2023-04-21T13:11:21;38.90;27.00
13585;DHT22;6863;48.402;9.994;2023-04-21T13:13:47;38.90;26.70
13585;DHT22;6863;48.402;9.994;2023-04-21T13:16:12;38.20;27.10
13585;DHT22;6863;48.402;9.994;2023-04-21T13:18:38;37.50;27.40
13585;DHT22;6863;48.402;9.994;2023-04-21T13:21:04;37.70;28.30
13585;DHT22;6863;48.402;9.994;2023-04-21T13:23:30;37.60;28.10
13585;DHT22;6863;48.402;9.994;2023-04-21T13:25:56;38.20;28.10
13585;DHT22;6863;48.402;9.994;2023-04-21T13:28:22;39.10;26.80
13585;DHT22;6863;48.402;9.994;2023-04-21T13:30:49;39.70;26.30
13585;DHT22;6863;48.402;9.994;2023-04-21T13:33:15;37.30;27.70
13585;DHT22;6863;48.402;9.994;2023-04-21T13:35:41;38.40;27.60
13585;DHT22;6863;48.402;9.994;2023-04-21T13:38:07;39.70;26.20
13585;DHT22;6863;48.402;9.994;2023-04-21T13:40:32;40.60;25.70
13585;DHT22;6863;48.402;9.994;2023-04-21T13:42:58;40.20;25.80
13585;DHT22;6863;48.402;9.994;2023-04-21T13:45:24;39.90;26.10
13585;DHT22;6863;48.402;9.994;2023-04-21T13:47:49;40.60;25.10
13585;DHT22;6863;48.402;9.994;2023-04-21T13:50:16;41.60;24.40
13585;DHT22;6863;48.402;9.994;2023-04-21T13:52:42;41.70;24.40
13585;DHT22;6863;48.402;9.994;2023-04-21T13:55:08;42.10;24.40
13585;DHT22;6863;48.402;9.994;2023-04-21T13:57:33;41.20;24.40
13585;DHT22;6863;48.402;9.994;2023-04-21T13:59:59;40.90;24.60
13585;DHT22;6863;48.402;9.994;2023-04-21T14:02:25;38.40;26.10
13585;DHT22;6863;48.402;9.994;2023-04-21T14:04:51;36.20;28.30
13585;DHT22;6863;48.402;9.994;2023-04-21T14:07:18;36.00;28.50
13585;DHT22;6863;48.402;9.994;2023-04-21T14:09:46;35.90;28.80
13585;DHT22;6863;48.402;9.994;2023-04-21T14:12:13;36.30;29.60
13585;DHT22;6863;48.402;9.994;2023-04-21T14:14:39;36.50;28.90
13585;DHT22;6863;48.402;9.994;2023-04-21T14:17:05;36.70;28.50
13585;DHT22;6863;48.402;9.994;2023-04-21T14:19:35;37.60;28.30
13585;DHT22;6863;48.402;9.994;2023-04-21T14:22:01;38.30;27.30
13585;DHT22;6863;48.402;9.994;2023-04-21T14:24:29;38.10;27.00
13585;DHT22;6863;48.402;9.994;2023-04-21T14:26:58;38.20;27.00
13585;DHT22;6863;48.402;9.994;2023-04-21T14:29:24;38.10;27.00
13585;DHT22;6863;48.402;9.994;2023-04-21T14:31:50;37.90;27.30
13585;DHT22;6863;48.402;9.994;2023-04-21T14:34:18;37.80;27.70
13585;DHT22;6863;48.402;9.994;2023-04-21T14:36:46;37.40;28.00
13585;DHT22;6863;48.402;9.994;2023-04-21T14:39:14;37.80;28.00
13585;DHT22;6863;48.402;9.994;2023-04-21T14:41:41;37.70;27.90
13585;DHT22;6863;48.402;9.994;2023-04-21T14:44:06;37.40;28.30
13585;DHT22;6863;48.402;9.994;2023-04-21T14:46:32;37.90;28.10
13585;DHT22;6863;48.402;9.994;2023-04-21T14:48:58;37.50;28.50
13585;DHT22;6863;48.402;9.994;2023-04-21T14:51:24;36.90;28.60
13585;DHT22;6863;48.402;9.994;2023-04-21T14:53:53;35.30;30.50
13585;DHT22;6863;48.402;9.994;2023-04-21T14:56:19;33.60;32.10
13585;DHT22;6863;48.402;9.994;2023-04-21T14:58:45;32.20;34.00
13585;DHT22;6863;48.402;9.994;2023-04-21T15:01:11;32.40;34.00
13585;DHT22;6863;48.402;9.994;2023-04-21T15:03:36;31.60;34.60
13585;DHT22;6863;48.402;9.994;2023-04-21T15:06:03;31.90;34.60
13585;DHT22;6863;48.402;9.994;2023-04-21T15:08:28;31.00;36.10
13585;DHT22;6863;48.402;9.994;2023-04-21T15:10:54;30.10;37.00
13585;DHT22;6863;48.402;9.994;2023-04-21T15:13:20;29.20;38.30
13585;DHT22;6863;48.402;9.994;2023-04-21T15:15:46;28.60;40.70
13585;DHT22;6863;48.402;9.994;2023-04-21T15:18:12;28.00;41.40
13585;DHT22;6863;48.402;9.994;2023-04-21T15:20:37;27.40;42.20
13585;DHT22;6863;48.402;9.994;2023-04-21T15:23:03;27.30;42.00
13585;DHT22;6863;48.402;9.994;2023-04-21T15:25:29;26.40;43.20
13585;DHT22;6863;48.402;9.994;2023-04-21T15:27:54;25.60;44.40
13585;DHT22;6863;48.402;9.994;2023-04-21T15:30:20;24.80;46.50
13585;DHT22;6863;48.402;9.994;2023-04-21T15:32:46;23.80;48.70
13585;DHT22;6863;48.402;9.994;2023-04-21T15:35:11;23.40;50.30
13585;DHT22;6863;48.402;9.994;2023-04-21T15:37:37;23.40;50.30
13585;DHT22;6863;48.402;9.994;2023-04-21T15:40:03;23.20;50.80
13585;DHT22;6863;48.402;9.994;2023-04-21T15:42:29;23.20;50.10
13585;DHT22;6863;48.402;9.994;2023-04-21T15:44:54;23.00;51.00
13585;DHT22;6863;48.402;9.994;2023-04-21T15:47:21;23.00;51.00
13585;DHT22;6863;48.402;9.994;2023-04-21T15:49:47;22.90;51.00
13585;DHT22;6863;48.402;9.994;2023-04-21T15:52:13;22.60;52.30
13585;DHT22;6863;48.402;9.994;2023-04-21T15:54:38;22.60;52.50
13585;DHT22;6863;48.402;9.994;2023-04-21T15:57:05;22.30;52.90
13585;DHT22;6863;48.402;9.994;2023-04-21T15:59:30;22.10;53.30
13585;DHT22;6863;48.402;9.994;2023-04-21T16:01:56;21.90;54.10
13585;DHT22;6863;48.402;9.994;2023-04-21T16:04:22;21.60;54.70
13585;DHT22;6863;48.402;9.994;2023-04-21T16:06:47;21.30;53.20